createdAt,value
2023-04-23T00:03:36.327Z,14.91
2023-04-23T00:07:38.774Z,14.90
2023-04-23T00:11:40.856Z,14.87
2023-04-23T00:15:42.650Z,14.83
2023-04-23T00:19:44.160Z,14.81
2023-04-23T00:23:46.225Z,14.76
2023-04-23T00:27:48.237Z,14.73
2023-04-23T00:31:50.002Z,14.70
2023-04-23T00:35:51.803Z,14.65
2023-04-23T00:39:53.778Z,14.59
2023-04-23T00:43:57.797Z,14.52
2023-04-23T00:47:59.682Z,14.51
2023-04-23T00:52:01.365Z,14.49
2023-04-23T00:56:05.393Z,14.52
2023-04-23T01:00:08.407Z,14.47
2023-04-23T01:04:10.804Z,14.40
2023-04-23T01:08:16.279Z,14.42
2023-04-23T01:12:18.049Z,14.41
2023-04-23T01:16:19.657Z,14.40
2023-04-23T01:20:21.771Z,14.35
2023-04-23T01:24:23.980Z,14.29
2023-04-23T01:28:26.226Z,14.27
2023-04-23T01:32:28.470Z,14.28
2023-04-23T01:36:31.171Z,14.26
2023-04-23T01:40:32.943Z,14.20
2023-04-23T01:44:34.673Z,14.13
2023-04-23T01:48:37.339Z,14.05
2023-04-23T01:52:39.000Z,14.01
2023-04-23T01:56:40.762Z,13.98
2023-04-23T02:00:42.381Z,13.96
2023-04-23T02:04:45.856Z,13.91
2023-04-23T02:08:47.520Z,13.90
2023-04-23T02:12:49.193Z,13.90
2023-04-23T02:16:51.508Z,13.91
2023-04-23T02:20:54.190Z,13.94
2023-04-23T02:24:56.006Z,14.03
2023-04-23T02:28:57.565Z,14.06
2023-04-23T02:32:59.311Z,14.09
2023-04-23T02:37:00.977Z,14.06
2023-04-23T02:41:02.681Z,14.12
2023-04-23T02:45:04.562Z,14.09
2023-04-23T02:49:06.711Z,14.09
2023-04-23T02:53:08.272Z,14.07
2023-04-23T02:57:10.148Z,14.03
2023-04-23T03:01:12.285Z,14.06
2023-04-23T03:05:14.092Z,14.03
2023-04-23T03:09:16.369Z,13.98
2023-04-23T03:13:17.891Z,14.08
2023-04-23T03:17:19.385Z,14.06
2023-04-23T03:21:21.256Z,14.14
2023-04-23T03:25:25.705Z,14.10
2023-04-23T03:29:28.290Z,14.16
2023-04-23T03:33:30.222Z,14.23
2023-04-23T03:37:32.040Z,14.32
2023-04-23T03:41:33.853Z,14.40
2023-04-23T03:45:36.882Z,14.49
2023-04-23T03:49:40.279Z,14.53
2023-04-23T03:53:42.656Z,14.55
2023-04-23T03:58:19.327Z,14.64
2023-04-23T04:02:22.921Z,14.75
2023-04-23T04:06:27.597Z,14.69
2023-04-23T04:10:31.004Z,14.70
2023-04-23T04:14:32.857Z,14.70
2023-04-23T04:18:34.447Z,14.70
2023-04-23T04:22:36.027Z,14.65
2023-04-23T04:26:37.713Z,14.72
2023-04-23T04:30:40.352Z,14.77
2023-04-23T04:34:42.103Z,14.69
2023-04-23T04:38:43.818Z,14.71
2023-04-23T04:42:46.483Z,14.80
2023-04-23T04:46:48.040Z,14.79
2023-04-23T04:50:49.762Z,14.77
2023-04-23T04:54:51.344Z,14.87
2023-04-23T04:58:52.994Z,14.92
2023-04-23T05:02:55.579Z,14.95
2023-04-23T05:06:57.319Z,14.95
2023-04-23T05:11:00.731Z,15.05
2023-04-23T05:15:02.291Z,15.08
2023-04-23T05:19:03.814Z,15.07
2023-04-23T05:23:05.878Z,15.07
2023-04-23T05:27:07.330Z,15.29
2023-04-23T05:31:08.939Z,15.36
2023-04-23T05:35:10.747Z,15.38
2023-04-23T05:39:12.453Z,15.48
2023-04-23T05:43:14.135Z,15.37
2023-04-23T05:47:15.714Z,15.31
2023-04-23T05:51:17.715Z,15.39
2023-04-23T05:55:21.008Z,15.53
2023-04-23T05:59:22.816Z,15.69
2023-04-23T06:03:24.701Z,15.90
2023-04-23T06:07:26.554Z,16.22
2023-04-23T06:11:28.182Z,16.48
2023-04-23T06:15:29.846Z,16.64
2023-04-23T06:19:31.430Z,17.15
2023-04-23T06:23:34.215Z,17.52
2023-04-23T06:27:35.779Z,17.97
2023-04-23T06:31:44.634Z,18.40
2023-04-23T06:35:47.072Z,18.40
2023-04-23T06:39:49.391Z,18.53
2023-04-23T06:43:50.858Z,18.58
2023-04-23T06:48:07.113Z,18.39
2023-04-23T06:52:08.659Z,18.15
2023-04-23T06:56:10.434Z,18.08
2023-04-23T07:00:13.126Z,17.83
2023-04-23T07:04:16.969Z,17.77
2023-04-23T07:08:18.550Z,17.88
2023-04-23T07:12:20.225Z,17.69
2023-04-23T07:16:22.794Z,17.84
2023-04-23T07:20:24.374Z,17.89
2023-04-23T07:24:26.708Z,18.13
2023-04-23T07:28:28.374Z,18.58
2023-04-23T07:32:30.500Z,18.79
2023-04-23T07:36:31.984Z,18.77
2023-04-23T07:40:33.899Z,18.56
2023-04-23T07:44:36.116Z,18.69
2023-04-23T07:48:37.761Z,18.39
2023-04-23T07:52:39.923Z,18.12
2023-04-23T07:56:43.224Z,18.17
2023-04-23T08:00:45.202Z,18.64
2023-04-23T08:04:46.963Z,19.22
2023-04-23T08:08:49.419Z,19.59
2023-04-23T08:12:51.271Z,19.98
2023-04-23T08:16:52.887Z,20.56
2023-04-23T08:20:55.016Z,20.86
2023-04-23T08:24:56.795Z,21.01
2023-04-23T08:29:00.530Z,21.23
2023-04-23T08:33:02.283Z,21.70
2023-04-23T08:37:04.642Z,22.43
2023-04-23T08:41:09.265Z,21.83
2023-04-23T08:45:11.751Z,20.87
2023-04-23T08:49:18.711Z,20.22
2023-04-23T08:53:25.195Z,19.85
2023-04-23T08:57:27.128Z,19.52
2023-04-23T09:01:30.114Z,19.01
2023-04-23T09:05:32.201Z,18.69
2023-04-23T09:09:33.715Z,18.63
2023-04-23T09:13:36.131Z,19.04
2023-04-23T09:17:46.552Z,19.62
2023-04-23T09:21:48.142Z,20.61
2023-04-23T09:25:49.791Z,20.94
2023-04-23T09:29:53.103Z,20.85
2023-04-23T09:33:55.128Z,20.56
2023-04-23T09:37:56.779Z,20.85
2023-04-23T09:42:04.401Z,20.79
2023-04-23T09:46:06.020Z,20.99
2023-04-23T09:50:10.476Z,20.69
2023-04-23T09:54:21.705Z,20.88
2023-04-23T09:58:27.549Z,21.32
2023-04-23T10:02:30.735Z,21.21
2023-04-23T10:06:44.422Z,21.31
2023-04-23T10:11:03.141Z,21.28
2023-04-23T10:15:12.888Z,21.36
2023-04-23T10:19:15.985Z,21.18
2023-04-23T10:23:21.828Z,21.28
2023-04-23T10:27:40.377Z,21.28
2023-04-23T10:31:51.051Z,20.75
2023-04-23T10:35:55.388Z,20.15
2023-04-23T10:40:09.001Z,20.28
2023-04-23T10:44:16.717Z,20.03
2023-04-23T10:48:18.299Z,20.15
2023-04-23T10:52:22.999Z,20.42
2023-04-23T10:56:28.329Z,20.71
2023-04-23T11:00:51.077Z,21.61
2023-04-23T11:04:57.900Z,22.65
2023-04-23T11:08:59.683Z,22.56
2023-04-23T11:13:20.628Z,21.86
2023-04-23T11:17:43.324Z,21.01
2023-04-23T11:22:01.426Z,20.43
2023-04-23T11:26:05.351Z,20.38
2023-04-23T11:30:15.111Z,20.23
2023-04-23T11:34:17.958Z,20.32
2023-04-23T11:38:21.081Z,20.68
2023-04-23T11:42:23.156Z,21.96
2023-04-23T11:46:24.970Z,25.59
2023-04-23T11:50:33.000Z,31.15
2023-04-23T11:54:35.140Z,35.15
2023-04-23T11:58:37.844Z,31.34
2023-04-23T12:03:00.230Z,28.76
2023-04-23T12:07:05.919Z,26.41
2023-04-23T12:11:15.180Z,24.64
2023-04-23T12:15:16.748Z,23.48
2023-04-23T12:19:20.858Z,23.13
2023-04-23T12:23:27.198Z,22.99
2023-04-23T12:27:33.721Z,22.73
2023-04-23T12:31:38.478Z,22.43
2023-04-23T12:36:11.253Z,21.66
2023-04-23T12:40:13.040Z,21.92
2023-04-23T12:44:14.757Z,23.86
2023-04-23T12:48:16.425Z,27.61
2023-04-23T12:52:18.247Z,32.08
2023-04-23T12:56:20.656Z,33.57
2023-04-23T13:00:23.123Z,35.16
2023-04-23T13:04:24.759Z,37.88
2023-04-23T13:08:26.220Z,37.61
2023-04-23T13:12:27.951Z,36.19
2023-04-23T13:16:30.263Z,31.30
2023-04-23T13:20:31.829Z,30.44
2023-04-23T13:24:33.605Z,29.72
2023-04-23T13:28:36.324Z,28.21
2023-04-23T13:32:38.071Z,29.13
2023-04-23T13:36:42.833Z,27.10
2023-04-23T13:40:44.702Z,24.93
2023-04-23T13:44:46.428Z,24.32
2023-04-23T13:48:48.003Z,30.08
2023-04-23T13:52:49.657Z,31.61
2023-04-23T13:57:45.221Z,29.07
2023-04-23T14:02:56.946Z,26.01
2023-04-23T14:07:01.206Z,24.32
2023-04-23T14:11:04.094Z,23.32
2023-04-23T14:15:07.135Z,22.50
2023-04-23T14:19:08.745Z,22.27
2023-04-23T14:23:22.743Z,22.26
2023-04-23T14:27:46.977Z,22.22
2023-04-23T14:31:51.594Z,21.96
2023-04-23T14:35:54.210Z,21.68
2023-04-23T14:39:55.775Z,21.30
2023-04-23T14:44:19.041Z,20.88
2023-04-23T14:48:20.575Z,20.80
2023-04-23T14:52:22.297Z,20.62
2023-04-23T14:56:24.108Z,20.37
2023-04-23T15:00:26.576Z,20.22
2023-04-23T15:04:29.426Z,20.09
2023-04-23T15:08:51.449Z,20.08
2023-04-23T15:13:14.496Z,20.17
2023-04-23T15:17:17.423Z,20.09
2023-04-23T15:21:19.109Z,20.21
2023-04-23T15:25:20.710Z,20.26
2023-04-23T15:29:27.900Z,20.24
2023-04-23T15:33:29.759Z,20.14
2023-04-23T15:38:05.682Z,20.15
2023-04-23T15:42:07.896Z,20.28
2023-04-23T15:46:09.450Z,20.39
2023-04-23T15:50:33.750Z,20.56
2023-04-23T15:59:18.582Z,20.92
2023-04-23T16:03:21.132Z,20.92
2023-04-23T16:07:22.897Z,20.93
2023-04-23T16:11:27.682Z,21.00
2023-04-23T16:15:29.704Z,21.02
2023-04-23T16:19:31.556Z,20.82
2023-04-23T16:23:33.848Z,20.18
2023-04-23T16:28:18.153Z,20.14
2023-04-23T16:32:20.611Z,20.01
2023-04-23T16:36:22.491Z,19.87
2023-04-23T16:40:32.240Z,19.62
2023-04-23T16:44:33.916Z,19.49
2023-04-23T16:48:35.373Z,19.40
2023-04-23T16:52:56.808Z,19.01
2023-04-23T16:56:58.438Z,18.85
2023-04-23T17:01:03.149Z,18.67
2023-04-23T17:05:15.145Z,18.37
2023-04-23T17:09:20.600Z,18.21
2023-04-23T17:13:22.170Z,18.10
2023-04-23T17:17:24.375Z,18.01
2023-04-23T17:21:46.017Z,17.85
2023-04-23T17:25:51.118Z,17.59
2023-04-23T17:29:52.746Z,17.32
2023-04-23T17:34:11.910Z,17.11
2023-04-23T17:38:21.892Z,16.99
2023-04-23T17:42:23.544Z,16.79
2023-04-23T17:46:25.034Z,16.66
2023-04-23T17:50:28.281Z,16.56
2023-04-23T17:54:29.962Z,16.44
2023-04-23T17:58:31.607Z,16.27
2023-04-23T18:02:53.145Z,16.19
2023-04-23T18:06:55.550Z,16.07
2023-04-23T18:10:58.453Z,15.98
2023-04-23T18:15:02.254Z,15.86
2023-04-23T18:19:03.902Z,15.77
2023-04-23T18:23:08.668Z,15.69
2023-04-23T18:27:12.813Z,15.60
2023-04-23T18:31:28.777Z,15.52
2023-04-23T18:35:30.313Z,15.50
2023-04-23T18:39:32.633Z,15.58
2023-04-23T18:43:37.616Z,15.65
2023-04-23T18:48:26.415Z,15.52
2023-04-23T18:52:28.114Z,15.48
2023-04-23T18:56:30.079Z,15.40
2023-04-23T19:00:31.679Z,15.43
2023-04-23T19:04:33.671Z,15.37
2023-04-23T19:08:35.707Z,15.32
2023-04-23T19:13:11.096Z,15.26
2023-04-23T19:18:03.416Z,15.21
2023-04-23T19:22:05.298Z,15.06
2023-04-23T19:26:06.781Z,15.03
2023-04-23T19:30:28.849Z,14.90
2023-04-23T19:34:33.876Z,14.83
2023-04-23T19:38:35.714Z,14.73
2023-04-23T19:42:38.308Z,14.64
2023-04-23T19:46:59.971Z,14.56
2023-04-23T19:51:11.945Z,14.47
2023-04-23T19:55:33.564Z,14.35
2023-04-23T19:59:35.097Z,14.34
2023-04-23T20:03:36.895Z,14.16
2023-04-23T20:07:41.419Z,14.10
2023-04-23T20:12:25.934Z,14.06
2023-04-23T20:16:30.609Z,14.13
2023-04-23T20:20:33.776Z,14.11
2023-04-23T20:24:56.379Z,14.01
2023-04-23T20:28:57.860Z,13.89
2023-04-23T20:33:20.435Z,13.83
2023-04-23T20:37:22.521Z,13.71
2023-04-23T20:41:31.279Z,13.73
2023-04-23T20:45:52.833Z,13.67
2023-04-23T20:49:54.692Z,13.61
2023-04-23T20:54:46.417Z,13.49
2023-04-23T21:05:12.825Z,13.29
2023-04-23T21:09:14.528Z,13.21
2023-04-23T21:14:08.998Z,13.18
2023-04-23T21:24:35.597Z,13.16
2023-04-23T21:29:30.205Z,13.10
2023-04-23T21:33:31.890Z,13.05
2023-04-23T21:38:08.229Z,13.00
2023-04-23T21:53:22.535Z,12.97
2023-04-23T21:57:23.989Z,12.91
2023-04-23T22:01:25.698Z,12.88
2023-04-23T22:05:28.316Z,12.87
2023-04-23T22:09:30.427Z,12.89
2023-04-23T22:13:31.903Z,12.83
2023-04-23T22:17:36.239Z,12.92
2023-04-23T22:21:37.888Z,12.91
2023-04-23T22:25:39.633Z,12.93
2023-04-23T22:30:15.586Z,12.95
2023-04-23T22:34:43.296Z,12.90
2023-04-23T22:38:44.807Z,12.88
2023-04-23T22:42:46.509Z,12.89
2023-04-23T22:46:48.045Z,13.03
2023-04-23T22:50:50.934Z,13.03
2023-04-23T22:54:54.745Z,13.03
2023-04-23T22:58:56.735Z,12.98
2023-04-23T23:02:58.232Z,13.05
2023-04-23T23:06:59.985Z,13.07
2023-04-23T23:11:01.588Z,13.00
2023-04-23T23:15:03.724Z,12.96
2023-04-23T23:19:05.290Z,12.94
2023-04-23T23:23:07.320Z,12.89
2023-04-23T23:27:08.749Z,12.82
2023-04-23T23:31:10.661Z,12.82
2023-04-23T23:35:12.519Z,12.80
2023-04-23T23:39:18.874Z,12.80
2023-04-23T23:43:20.338Z,12.76
2023-04-23T23:47:22.356Z,12.81
2023-04-23T23:51:23.977Z,12.79
2023-04-23T23:55:25.763Z,12.78
2023-04-23T23:59:27.516Z,12.80
